Decoded Metar for OISS (SHIRAZ in IRAN) (IATA:SYZ) | Meteo·Mobile Aviation Weather
aviador You're here:

OISS Decoded Metar

SHIRAZ in IRAN
Report Time2019-01-19 15:50:00
UTC Time2019-01-19 16:13:19
Flight Rules vfr VFR
Wind270° at 04 kt
W.Decomp.*RWY 29: 3.7 kt HW 1.6 kt LCW
W.Rank270° ranks 2
Current wind is below 270° avg. (7.3)
Visibility9999 m
Phenomena:N/A
Clouds:N/A
Expected CloudBase > 7,600 ft AGL from Temp-Dew spread
CeilingNone
Temp05°C (ISA -0)
Dew Point-14°C (24% RH)
AAT0.2°C
QNH1017 hPa
Density Alt4,760 ft
Elevation4,892 ft
Report Wrong Elevation
Raw Report
OISS 191550Z 27004KT CAVOK 05/M14 Q1017 A3005=

Extra information for OISS:More info

Metar Taf Metar & Taf Last 4 Metars F.Rules Stats Wind Profile Meteogram Temp Stats Airport Information Weather charts Add Link Nearby VenuesMetar ALERT Operation Metar Decoded Social comments